^^
Dati Storici Stazione
 
Giornaliero Riassunto Gennaio 22, 2022 Unita' di misura:  Metriche    Inglesi   Entrambe
Giornaliero Settimanale Mensile Annuale
  Attuale: Max: Min: Media:
Temperatura: 5.9 °C 7.7 °C 1.9 °C 4.6 °C
Punto di Rugiada: -2.4 °C 1.7 °C -4.9 °C -3.1 °C
Umidita': 55.4% 81.7% 45.1% 59%
Velocita' Vento: 4km/h 18km/h 0.5km/h 7.4km/h
Raffica di Vento: 16.1km/h 42.6km/h - -
Direzione VentoWNW - - ESE
Pressione: 1020.9 hPa 1021.6 hPa 1020.9 hPa -
Precipitazioni: 0 mm      
 
 
Tabelle Dati per il Gennaio 22, 2022
Ora Temperatura Punto Rugiada Pressione Dir.Vento Vel.Vento Raff.Vento Umidita' Rainfall Rate (Orario) Solare Condizioni
00:04 4.6 °C 1.7 °C 1021.2 hPa NE 4.7 km/h 12.9 km/h 81.7% 0 mm W/m2
00:09 4.7 °C 1.4 °C 1021.2 hPa NNE 4.7 km/h 9.7 km/h 79.8% 0 mm W/m2
00:14 4.7 °C 1.2 °C 1021.2 hPa NE 4.5 km/h 9.7 km/h 78.3% 0 mm W/m2
00:19 4.7 °C 0.8 °C 1021.2 hPa NE 4.8 km/h 9.7 km/h 76.4% 0 mm W/m2
00:24 4.7 °C 0.5 °C 1021.2 hPa East 7.1 km/h 19.3 km/h 74.3% 0 mm W/m2
00:29 4.7 °C 0.2 °C 1020.9 hPa NE 9.5 km/h 20.9 km/h 72.5% 0 mm W/m2
00:34 4.7 °C -0.2 °C 1020.9 hPa NE 10 km/h 20.9 km/h 71% 0 mm W/m2
00:39 4.6 °C -0.3 °C 1020.9 hPa NE 8.4 km/h 20.9 km/h 70.7% 0 mm W/m2
00:44 4.6 °C -0.5 °C 1021.2 hPa NE 8.7 km/h 19.3 km/h 69.7% 0 mm W/m2
00:49 4.5 °C -0.7 °C 1021.2 hPa ENE 9 km/h 17.7 km/h 69% 0 mm W/m2
00:54 4.4 °C -0.9 °C 1021.2 hPa NE 10 km/h 24.1 km/h 68.2% 0 mm W/m2
00:59 4.4 °C -1.1 °C 1021.2 hPa NE 10.1 km/h 24.1 km/h 67.5% 0 mm W/m2
01:04 4.3 °C -1.3 °C 1021.2 hPa NE 10.1 km/h 19.3 km/h 67% 0 mm W/m2
01:09 4.3 °C -1.3 °C 1021.2 hPa NE 8.7 km/h 20.9 km/h 67% 0 mm W/m2
01:14 4.1 °C -1.4 °C 1021.2 hPa NE 8.5 km/h 20.9 km/h 67% 0 mm W/m2
01:19 4 °C -1.6 °C 1021.2 hPa NE 7.6 km/h 16.1 km/h 67% 0 mm W/m2
01:24 3.9 °C -1.8 °C 1021.2 hPa NE 6.3 km/h 16.1 km/h 66.4% 0 mm W/m2
01:29 3.8 °C -1.8 °C 1021.2 hPa NE 6 km/h 16.7 km/h 66.9% 0 mm W/m2
01:34 3.7 °C -2.1 °C 1021.2 hPa NE 9 km/h 24.1 km/h 65.8% 0 mm W/m2
01:39 3.6 °C -2.3 °C 1021.2 hPa NE 10.1 km/h 24.1 km/h 65.3% 0 mm W/m2
01:44 3.6 °C -2.3 °C 1021.2 hPa NE 10.1 km/h 20.9 km/h 65.5% 0 mm W/m2
01:49 3.6 °C -2.6 °C 1021.2 hPa NE 8.5 km/h 20.9 km/h 64.1% 0 mm W/m2
01:54 3.5 °C -2.5 °C 1021.6 hPa NE 6.8 km/h 19.3 km/h 64.6% 0 mm W/m2
01:59 3.4 °C -2.8 °C 1021.6 hPa NE 6.6 km/h 14.8 km/h 63.8% 0 mm W/m2
02:04 3.4 °C -3.2 °C 1021.6 hPa NE 6.3 km/h 19.3 km/h 62.4% 0 mm W/m2
02:09 3.3 °C -3.5 °C 1021.6 hPa NE 7.2 km/h 19.3 km/h 61.2% 0 mm W/m2
02:14 3.2 °C -3.8 °C 1021.6 hPa NE 5.5 km/h 13 km/h 60.2% 0 mm W/m2
02:19 3.1 °C -4 °C 1021.6 hPa NE 6.3 km/h 14.8 km/h 59.6% 0 mm W/m2
02:24 3.1 °C -4.3 °C 1021.6 hPa NE 7.1 km/h 14.8 km/h 58.6% 0 mm W/m2
02:29 3.1 °C -4.6 °C 1021.6 hPa NE 6.4 km/h 13 km/h 57.5% 0 mm W/m2
02:34 3 °C -4.7 °C 1021.6 hPa NE 6.8 km/h 14.5 km/h 57.2% 0 mm W/m2
02:39 3 °C -4.9 °C 1021.2 hPa NE 7.7 km/h 16.1 km/h 56.3% 0 mm W/m2
02:44 3 °C -4.9 °C 1021.2 hPa NE 6.4 km/h 16.1 km/h 56.3% 0 mm W/m2
02:49 2.9 °C -4.8 °C 1021.2 hPa NE 6.6 km/h 14.8 km/h 57% 0 mm W/m2
02:54 2.9 °C -4.6 °C 1021.2 hPa NE 6.8 km/h 14.5 km/h 58% 0 mm W/m2
02:59 2.8 °C -4.5 °C 1021.2 hPa ENE 6.1 km/h 11.3 km/h 58.5% 0 mm W/m2
03:04 2.8 °C -4.4 °C 1021.2 hPa NE 6 km/h 13 km/h 59% 0 mm W/m2
03:09 2.8 °C -4.2 °C 1021.2 hPa NE 5 km/h 12.9 km/h 60% 0 mm W/m2
03:14 2.8 °C -4.1 °C 1021.2 hPa NE 3.5 km/h 11.3 km/h 60.5% 0 mm W/m2
03:19 2.7 °C -3.9 °C 1021.2 hPa NE 3.1 km/h 8 km/h 61.5% 0 mm W/m2
03:24 2.7 °C -3.8 °C 1021.2 hPa NE 4.7 km/h 9.7 km/h 62.3% 0 mm W/m2
03:29 2.6 °C -3.7 °C 1021.2 hPa NE 6.3 km/h 12.9 km/h 63% 0 mm W/m2
03:34 2.7 °C -3.9 °C 1021.2 hPa NE 6.3 km/h 13 km/h 62% 0 mm W/m2
03:39 2.6 °C -3.9 °C 1021.2 hPa NE 5.5 km/h 12.9 km/h 62% 0 mm W/m2
03:44 2.6 °C -3.9 °C 1021.2 hPa NE 4.7 km/h 11.3 km/h 62% 0 mm W/m2
03:49 2.6 °C -4 °C 1021.2 hPa NE 5.8 km/h 9.7 km/h 62% 0 mm W/m2
03:54 2.5 °C -4.1 °C 1021.2 hPa NE 3.9 km/h 9.7 km/h 62% 0 mm W/m2
03:59 2.4 °C -4.1 °C 1021.2 hPa NE 4.2 km/h 9.7 km/h 62% 0 mm W/m2
04:04 2.4 °C -4.1 °C 1021.2 hPa NE 3.5 km/h 9.7 km/h 62% 0 mm W/m2
04:09 2.4 °C -4.1 °C 1021.2 hPa NE 3.2 km/h 8 km/h 62% 0 mm W/m2
04:14 2.4 °C -4.2 °C 1021.2 hPa NE 3.9 km/h 11.3 km/h 62% 0 mm W/m2
04:19 2.3 °C -4.4 °C 1021.2 hPa NE 4.5 km/h 11.3 km/h 61.1% 0 mm W/m2
04:23 2.4 °C -4.4 °C 1020.9 hPa NE 4.8 km/h 11.3 km/h 61% 0 mm W/m2
04:29 2.5 °C -4.2 °C 1021.2 hPa NE 2.9 km/h 8 km/h 61.4% 0 mm W/m2
04:34 2.6 °C -4.1 °C 1021.2 hPa NE 2.4 km/h 8 km/h 61.8% 0 mm W/m2
04:39 2.6 °C -4 °C 1021.2 hPa North 2.3 km/h 6.4 km/h 62% 0 mm W/m2
04:44 2.4 °C -4.1 °C 1021.2 hPa NW 0.5 km/h 6.4 km/h 62.1% 0 mm W/m2
04:49 2.3 °C -4 °C 1021.2 hPa NNW 0.5 km/h 5.6 km/h 63% 0 mm W/m2
04:54 2.1 °C -3.9 °C 1021.2 hPa NNW 2.6 km/h 8 km/h 64.4% 0 mm W/m2
04:59 1.9 °C -3.7 °C 1021.2 hPa North 2.9 km/h 8 km/h 65.9% 0 mm W/m2
05:04 1.9 °C -3.6 °C 1021.2 hPa NNE 3.4 km/h 9.7 km/h 67% 0 mm W/m2
05:09 2.2 °C -3.4 °C 1021.2 hPa NE 3.5 km/h 9.7 km/h 66.6% 0 mm W/m2
05:14 2.3 °C -3.2 °C 1021.2 hPa NNE 3.4 km/h 9.7 km/h 67% 0 mm W/m2
05:19 2.4 °C -3.3 °C 1021.2 hPa NNW 5.8 km/h 14.8 km/h 66.2% 0 mm W/m2
05:24 2.5 °C -3.1 °C 1021.2 hPa NNW 4.7 km/h 14.5 km/h 66.9% 0 mm W/m2
05:29 2.5 °C -2.8 °C 1021.2 hPa NNW 3.2 km/h 11.3 km/h 68% 0 mm W/m2
05:34 2.5 °C -2.6 °C 1021.2 hPa NNW 2.4 km/h 9.7 km/h 69.5% 0 mm W/m2
05:39 2.4 °C -2.3 °C 1021.2 hPa NNW 2.6 km/h 9.7 km/h 71.1% 0 mm W/m2
05:44 2.3 °C -2.1 °C 1021.2 hPa NW 2.3 km/h 8 km/h 72.5% 0 mm W/m2
05:49 2.3 °C -2.1 °C 1021.2 hPa North 2.1 km/h 8 km/h 73% 0 mm W/m2
05:54 2.3 °C -2.1 °C 1021.2 hPa NW 2.7 km/h 8 km/h 73% 0 mm W/m2
05:59 2.3 °C -1.9 °C 1021.2 hPa NNW 3.9 km/h 13 km/h 73.9% 0 mm W/m2
06:04 2.2 °C -1.9 °C 1021.2 hPa NW 3.4 km/h 12.9 km/h 74% 0 mm W/m2
06:09 2.2 °C -1.9 °C 1021.2 hPa NNW 5.1 km/h 13 km/h 74% 0 mm W/m2
06:14 2.2 °C -1.9 °C 1021.2 hPa NNW 4.2 km/h 13 km/h 74% 0 mm W/m2
06:19 2.2 °C -1.9 °C 1021.2 hPa NW 4.8 km/h 13 km/h 74% 0 mm W/m2
06:24 2.3 °C -1.9 °C 1021.6 hPa North 5.1 km/h 14.8 km/h 74% 0 mm W/m2
06:29 2.3 °C -2 °C 1021.6 hPa NNW 4.3 km/h 14.5 km/h 73.1% 0 mm W/m2
06:34 2.3 °C -2.1 °C 1021.6 hPa NNW 4.7 km/h 11.3 km/h 73% 0 mm W/m2
06:39 2.2 °C -1.9 °C 1021.6 hPa North 3.7 km/h 11.3 km/h 74% 0 mm W/m2
06:44 2.2 °C -1.9 °C 1021.6 hPa NW 3.9 km/h 11.3 km/h 74% 0 mm W/m2
06:49 2.2 °C -1.9 °C 1021.6 hPa NNE 3.4 km/h 9.7 km/h 74% 0 mm W/m2
06:54 2.3 °C -1.9 °C 1021.6 hPa North 4.5 km/h 9.7 km/h 73.9% 0 mm W/m2
06:59 2.3 °C -2.1 °C 1021.6 hPa North 5 km/h 11.3 km/h 73% 0 mm W/m2
07:04 2.3 °C -2.1 °C 1021.6 hPa NNW 4.8 km/h 14.8 km/h 73% 0 mm W/m2
07:09 2.3 °C -2.2 °C 1021.6 hPa North 4.3 km/h 14.5 km/h 72.4% 0 mm W/m2
07:14 2.3 °C -2.2 °C 1021.6 hPa NNE 3.4 km/h 11.3 km/h 72% 0 mm W/m2
07:19 2.3 °C -2.3 °C 1021.6 hPa North 3.9 km/h 9.7 km/h 71.2% 0 mm W/m2
07:24 2.3 °C -2.4 °C 1021.6 hPa North 5.5 km/h 11.3 km/h 70.7% 0 mm W/m2
07:29 2.4 °C -2.6 °C 1021.6 hPa NNW 4 km/h 11.3 km/h 70% 0 mm W/m2
07:34 2.4 °C -2.6 °C 1021.6 hPa NNW 5.3 km/h 13 km/h 70% 0 mm W/m2
07:39 2.4 °C -2.5 °C 1021.6 hPa NNE 4.2 km/h 12.9 km/h 70% 0 mm W/m2
07:44 2.5 °C -2.4 °C 1021.6 hPa NW 5 km/h 12.9 km/h 70% 0 mm W/m2
07:49 2.6 °C -2.5 °C 1021.6 hPa North 5.1 km/h 12.9 km/h 69% 0 mm W/m2
07:54 2.7 °C -2.4 °C 1021.6 hPa North 3.5 km/h 12.9 km/h 68.8% 0 mm W/m2
07:59 2.8 °C -2.6 °C 1021.6 hPa NNW 3.9 km/h 9.7 km/h 68% 0 mm W/m2
08:04 2.8 °C -2.5 °C 1021.6 hPa North 3.5 km/h 9.7 km/h 68% 0 mm W/m2
08:09 2.9 °C -2.4 °C 1021.6 hPa NNE 5.1 km/h 11.3 km/h 67.8% 0 mm W/m2
08:14 3.1 °C -2.6 °C 1021.6 hPa NE 3.9 km/h 11.3 km/h 66.4% 0 mm W/m2
08:19 3.4 °C -2.6 °C 1021.6 hPa North 4.7 km/h 13 km/h 65.2% 0 mm W/m2
08:24 3.7 °C -3 °C 1021.6 hPa NE 7.9 km/h 24.1 km/h 61.8% 0 mm W/m2
08:29 3.9 °C -3.8 °C 1021.6 hPa NE 10.9 km/h 25.9 km/h 57.1% 0 mm W/m2
08:34 4.3 °C -3.9 °C 1021.6 hPa NE 8.9 km/h 25.7 km/h 55.2% 0 mm W/m2
08:39 4.6 °C -3.8 °C 1021.2 hPa NE 9.5 km/h 27.4 km/h 54.5% 0 mm W/m2
08:44 4.7 °C -3.8 °C 1021.2 hPa NE 7.4 km/h 27.4 km/h 54% 0 mm W/m2
08:49 4.9 °C -3.6 °C 1021.6 hPa NE 5.6 km/h 16.1 km/h 54.2% 0 mm W/m2
08:54 5.1 °C -3.8 °C 1021.2 hPa NE 7.9 km/h 16.7 km/h 52.5% 0 mm W/m2
08:59 5.1 °C -4.2 °C 1021.2 hPa NE 9.5 km/h 19.3 km/h 51.1% 0 mm W/m2
09:04 5.2 °C -4.4 °C 1021.2 hPa NE 9 km/h 19.3 km/h 50% 0 mm W/m2
09:09 5.3 °C -4.4 °C 1021.2 hPa NE 11.9 km/h 22.5 km/h 49.5% 0 mm W/m2
09:14 5.4 °C -4.4 °C 1021.2 hPa NE 11.6 km/h 24.1 km/h 49.2% 0 mm W/m2
09:19 5.4 °C -4.3 °C 1021.2 hPa NE 11.4 km/h 24.1 km/h 49.4% 0 mm W/m2
09:24 5.5 °C -4.3 °C 1021.2 hPa ENE 13.7 km/h 27.4 km/h 49.1% 0 mm W/m2
09:29 5.6 °C -4.3 °C 1021.2 hPa NE 12.1 km/h 27.4 km/h 49% 0 mm W/m2
09:34 5.6 °C -4.3 °C 1021.2 hPa NE 13 km/h 24.1 km/h 49% 0 mm W/m2
09:39 5.7 °C -4.1 °C 1021.2 hPa NE 12.4 km/h 25.7 km/h 49.3% 0 mm W/m2
09:44 5.8 °C -4.1 °C 1021.2 hPa NE 12.4 km/h 25.7 km/h 49% 0 mm W/m2
09:49 5.8 °C -4.1 °C 1021.2 hPa NE 12.7 km/h 25.7 km/h 49% 0 mm W/m2
09:54 5.9 °C -3.6 °C 1021.6 hPa NE 10 km/h 24.1 km/h 50.6% 0 mm W/m2
09:59 6.1 °C -3.3 °C 1021.6 hPa NE 10.5 km/h 19.3 km/h 51% 0 mm W/m2
10:04 6.2 °C -3 °C 1021.6 hPa NE 10.5 km/h 19.3 km/h 51.8% 0 mm W/m2
10:09 6.2 °C -3.1 °C 1021.6 hPa NE 13 km/h 24.1 km/h 51.1% 0 mm W/m2
10:14 6.2 °C -3.1 °C 1021.6 hPa NE 13 km/h 30.6 km/h 51.4% 0 mm W/m2
10:19 6.3 °C -2.9 °C 1021.6 hPa NE 14.6 km/h 30.6 km/h 51.6% 0 mm W/m2
10:24 6.3 °C -3.3 °C 1021.6 hPa NE 13.4 km/h 27.8 km/h 50.2% 0 mm W/m2
10:29 6.3 °C -3.5 °C 1021.6 hPa NE 15.4 km/h 27.8 km/h 49.3% 0 mm W/m2
10:34 6.4 °C -3.6 °C 1021.6 hPa NE 12.7 km/h 27.8 km/h 49% 0 mm W/m2
10:39 6.4 °C -3.3 °C 1021.6 hPa NE 14.3 km/h 42.6 km/h 49.5% 0 mm W/m2
10:44 6.4 °C -3.5 °C 1021.6 hPa NE 15.1 km/h 41.8 km/h 49% 0 mm W/m2
10:54 6.4 °C -3.5 °C 1021.6 hPa NE 18 km/h 38.6 km/h 49% 0 mm W/m2
10:59 6.5 °C -3.8 °C 1021.6 hPa NE 15.4 km/h 38.6 km/h 47.7% 0 mm W/m2
11:04 6.5 °C -4.4 °C 1021.6 hPa NE 15.1 km/h 37 km/h 45.8% 0 mm W/m2
11:09 6.6 °C -4.3 °C 1021.6 hPa NE 11.1 km/h 37 km/h 46% 0 mm W/m2
11:14 6.7 °C -3.6 °C 1021.6 hPa NE 12.9 km/h 25.9 km/h 48% 0 mm W/m2
11:19 6.7 °C -3.7 °C 1021.6 hPa NE 13.7 km/h 25.9 km/h 47.8% 0 mm W/m2
11:24 6.6 °C -3.5 °C 1021.6 hPa NE 12.7 km/h 25.9 km/h 48.4% 0 mm W/m2
11:29 6.7 °C -3.3 °C 1021.6 hPa NE 15 km/h 27.8 km/h 48.9% 0 mm W/m2
11:34 6.8 °C -3.1 °C 1021.6 hPa NE 11.4 km/h 29.6 km/h 49.4% 0 mm W/m2
11:39 6.8 °C -2.9 °C 1021.6 hPa NE 12.6 km/h 29 km/h 49.8% 0 mm W/m2
11:44 6.8 °C -2.9 °C 1021.6 hPa NE 13.4 km/h 31.5 km/h 50% 0 mm W/m2
11:49 6.7 °C -3.2 °C 1021.6 hPa NE 14.5 km/h 32.2 km/h 49.1% 0 mm W/m2
11:54 6.8 °C -3.4 °C 1021.6 hPa NE 10.8 km/h 32.2 km/h 48.1% 0 mm W/m2
11:59 6.9 °C -3.5 °C 1021.6 hPa NE 13.4 km/h 25.7 km/h 47.5% 0 mm W/m2
12:04 6.9 °C -3 °C 1021.6 hPa NE 11.6 km/h 25.9 km/h 49.4% 0 mm W/m2
12:09 6.9 °C -2.8 °C 1021.6 hPa NE 11.4 km/h 32.2 km/h 49.9% 0 mm W/m2
12:14 7 °C -3.3 °C 1021.2 hPa NE 9.8 km/h 32.2 km/h 47.9% 0 mm W/m2
12:19 7 °C -3.4 °C 1021.2 hPa NE 14.5 km/h 25.9 km/h 47.6% 0 mm W/m2
12:24 6.9 °C -3.1 °C 1021.2 hPa NE 15.4 km/h 31.5 km/h 48.9% 0 mm W/m2
12:29 6.9 °C -3.6 °C 1021.2 hPa NE 12.6 km/h 35.4 km/h 47.3% 0 mm W/m2
12:34 6.9 °C -3.6 °C 1021.2 hPa NE 12.2 km/h 35.4 km/h 47.2% 0 mm W/m2
12:39 6.9 °C -3.3 °C 1021.2 hPa NE 10 km/h 25.7 km/h 48.2% 0 mm W/m2
12:44 7.2 °C -3.2 °C 1021.2 hPa NE 9 km/h 24.1 km/h 47.9% 0 mm W/m2
12:49 7.2 °C -3.3 °C 1021.2 hPa NE 12.9 km/h 29.6 km/h 47.4% 0 mm W/m2
12:54 7 °C -3.1 °C 1021.2 hPa NE 10.3 km/h 29 km/h 48.7% 0 mm W/m2
12:59 7.1 °C -2.9 °C 1020.9 hPa NE 8.2 km/h 24.1 km/h 49% 0 mm W/m2
13:04 7.1 °C -3.1 °C 1021.2 hPa NE 12.2 km/h 22.5 km/h 48.1% 0 mm W/m2
13:09 7 °C -2.9 °C 1021.2 hPa NE 9.5 km/h 22.5 km/h 49.3% 0 mm W/m2
13:14 7.2 °C -2.6 °C 1020.9 hPa NE 9.3 km/h 19.3 km/h 50% 0 mm W/m2
13:19 7.2 °C -2.5 °C 1021.2 hPa NE 9 km/h 19.3 km/h 50.1% 0 mm W/m2
13:24 7.1 °C -2.8 °C 1021.2 hPa NE 7.9 km/h 19.3 km/h 49.2% 0 mm W/m2
13:29 7.2 °C -2.4 °C 1020.9 hPa NE 8 km/h 22.5 km/h 50.4% 0 mm W/m2
13:34 7.4 °C -2.6 °C 1020.9 hPa NE 9.3 km/h 22.5 km/h 49.1% 0 mm W/m2
13:39 7.6 °C -2.9 °C 1020.9 hPa NE 9.7 km/h 19.3 km/h 47.7% 0 mm W/m2
13:44 7.6 °C -3.1 °C 1020.9 hPa NNE 9.8 km/h 24.1 km/h 46.7% 0 mm W/m2
13:49 7.7 °C -3.4 °C 1020.9 hPa NNE 9.8 km/h 24.1 km/h 45.4% 0 mm W/m2
13:54 7.6 °C -3.6 °C 1020.9 hPa NNE 9.7 km/h 24.1 km/h 45.1% 0 mm W/m2
13:59 7.3 °C -3.4 °C 1020.9 hPa NNE 8 km/h 22.5 km/h 46.5% 0 mm W/m2
14:04 7.2 °C -2.9 °C 1020.9 hPa NNE 7.2 km/h 19.3 km/h 48.6% 0 mm W/m2
14:09 7 °C -3.3 °C 1020.9 hPa North 9.5 km/h 27.4 km/h 48.1% 0 mm W/m2
14:14 6.8 °C -3.7 °C 1020.9 hPa NNE 9.2 km/h 27.4 km/h 47% 0 mm W/m2
14:19 6.7 °C -3.6 °C 1020.9 hPa NNE 7.9 km/h 19.3 km/h 48% 0 mm W/m2
14:24 6.7 °C -3.6 °C 1020.9 hPa NE 9.3 km/h 24.1 km/h 47.9% 0 mm W/m2
14:29 6.5 °C -3.9 °C 1020.9 hPa NNE 9.7 km/h 24.1 km/h 47% 0 mm W/m2
14:34 6.4 °C -4.1 °C 1020.9 hPa NNE 8.7 km/h 20.9 km/h 47% 0 mm W/m2
14:39 6.3 °C -3.9 °C 1020.9 hPa NNE 6 km/h 20.9 km/h 47.9% 0 mm W/m2
14:44 6.3 °C -3.7 °C 1021.2 hPa North 4.7 km/h 11.3 km/h 48.7% 0 mm W/m2
14:49 6.2 °C -3.7 °C 1020.9 hPa North 5.8 km/h 14.8 km/h 49.2% 0 mm W/m2
14:54 6.2 °C -3.4 °C 1021.2 hPa North 4.7 km/h 14.5 km/h 50% 0 mm W/m2
14:59 6.1 °C -3.6 °C 1020.9 hPa NNW 6.9 km/h 20.9 km/h 50% 0 mm W/m2
15:04 6 °C -3.7 °C 1021.2 hPa NNW 9.8 km/h 20.9 km/h 50% 0 mm W/m2
15:09 5.9 °C -3.7 °C 1021.2 hPa WNW 8 km/h 20.9 km/h 50.1% 0 mm W/m2
15:14 5.8 °C -3.7 °C 1021.2 hPa NNW 7.4 km/h 19.3 km/h 50.6% 0 mm W/m2
15:19 5.8 °C -3.6 °C 1021.2 hPa North 5 km/h 19.3 km/h 50.9% 0 mm W/m2
15:24 5.8 °C -3.6 °C 1021.2 hPa NW 4.7 km/h 14.5 km/h 51.2% 0 mm W/m2
15:29 5.8 °C -3.4 °C 1021.2 hPa WNW 1.9 km/h 11.3 km/h 51.9% 0 mm W/m2
15:34 5.8 °C -3.3 °C 1020.9 hPa WNW 2.1 km/h 6.4 km/h 52% 0 mm W/m2
15:39 5.9 °C -3.2 °C 1020.9 hPa North 1.8 km/h 9.7 km/h 52% 0 mm W/m2
15:44 5.9 °C -3.2 °C 1020.9 hPa WNW 2.7 km/h 11.3 km/h 52% 0 mm W/m2
15:49 5.9 °C -3.1 °C 1020.9 hPa NNW 4 km/h 11.3 km/h 52.5% 0 mm W/m2
15:54 5.9 °C -2.9 °C 1020.9 hPa NNW 4.8 km/h 19.3 km/h 53.5% 0 mm W/m2
15:59 5.9 °C -2.7 °C 1020.9 hPa West 5.1 km/h 19.3 km/h 54% 0 mm W/m2
16:04 5.9 °C -2.5 °C 1020.9 hPa NW 2.6 km/h 12.9 km/h 55% 0 mm W/m2
16:09 5.9 °C -2.5 °C 1020.9 hPa NNW 1.4 km/h 12.9 km/h 55% 0 mm W/m2
16:14 5.9 °C -2.4 °C 1020.9 hPa WNW 4 km/h 16.1 km/h 55.4% 0 mm W/m2
Acquaviva delle Fonti, BA, Italia
Complimenti a Weather Underground - 2.75 mb